Rome, Georgia
Current Conditions -  °F | °C
As of 3:53 PM on Thursday 27 Nov 2014 (Local Time) from KRMG Reporting Station
Broken Clouds Broken Clouds  
Wind Chill:   Ceiling: 3600
Heat Index:   Visibility: 10mi
Dew Point: -2°   Wind: 9mph
Humidity: 58%   Direction: 320°NW
Pressure: 30.34"   Gusts: NA
Location:  34.25°N, 85.17°W
Report Text: KRMG 272053Z AUTO 32008KT 10SM BKN036 06/M02 A3034 RMK AO2 SLP273 T00561022 53004
Loading
Personal Weather Stations






























Interactive Weather Map New forecast layout! Learn more

10-Day Weather Forecast

Advertisements
Track Severe Weather on mobile